createdAt,value
2023-04-18T08:43:47.525Z,11.24
2023-04-18T08:50:59.804Z,11.52
2023-04-18T08:53:33.512Z,11.40
2023-04-18T08:54:40.575Z,11.36
2023-04-18T08:55:40.743Z,11.22
2023-04-18T08:56:40.518Z,11.19
2023-04-18T08:57:40.689Z,11.17
2023-04-18T08:58:59.411Z,11.14
2023-04-18T08:59:40.978Z,11.15
2023-04-18T09:00:42.652Z,11.11
2023-04-18T09:01:41.296Z,11.14
2023-04-18T09:02:40.841Z,11.17
2023-04-18T09:03:42.211Z,11.21
2023-04-18T09:04:40.939Z,11.27
2023-04-18T09:05:42.736Z,11.37
2023-04-18T09:06:40.439Z,11.57
2023-04-18T09:07:42.308Z,11.79
2023-04-18T09:08:42.786Z,12.04
2023-04-18T09:09:40.880Z,12.28
2023-04-18T09:10:44.297Z,12.24
2023-04-18T09:11:40.556Z,12.23
2023-04-18T09:12:43.383Z,12.12
2023-04-18T09:13:40.853Z,11.94
2023-04-18T09:14:40.690Z,11.96
2023-04-18T09:15:41.088Z,12.13
2023-04-18T09:20:04.294Z,12.49
2023-04-18T09:34:41.036Z,14.28
2023-04-18T10:02:30.496Z,13.00
2023-04-18T10:03:40.644Z,12.96
2023-04-18T10:12:36.403Z,13.19
2023-04-18T10:13:28.905Z,13.28
2023-04-18T10:14:28.770Z,13.32
2023-04-18T10:15:28.768Z,13.32
2023-04-18T10:16:28.861Z,13.42
2023-04-18T10:17:46.825Z,13.42
2023-04-18T10:18:28.799Z,13.36
2023-04-18T10:19:28.708Z,13.42
2023-04-18T10:20:28.718Z,13.57
2023-04-18T10:21:28.687Z,13.59
2023-04-18T10:22:28.691Z,13.85
2023-04-18T10:23:28.661Z,13.96
2023-04-18T10:24:28.650Z,13.88
2023-04-18T10:25:28.646Z,14.27
2023-04-18T10:26:28.674Z,14.69
2023-04-18T10:27:28.676Z,15.41
2023-04-18T10:28:28.614Z,15.72
2023-04-18T10:29:28.601Z,15.72
2023-04-18T10:30:28.592Z,15.83
2023-04-18T10:31:28.695Z,16.07
2023-04-18T10:32:28.623Z,16.85
2023-04-18T10:33:31.841Z,17.64
2023-04-18T10:34:28.606Z,18.27
2023-04-18T10:35:28.538Z,18.20
2023-04-18T10:36:28.843Z,18.12
2023-04-18T10:37:28.521Z,18.12
2023-04-18T10:38:28.542Z,18.17
2023-04-18T10:39:28.502Z,18.99
2023-04-18T10:40:28.486Z,19.51
2023-04-18T10:41:28.719Z,19.81
2023-04-18T10:42:28.463Z,19.76
2023-04-18T10:43:28.467Z,20.10
2023-04-18T10:44:28.483Z,20.05
2023-04-18T10:45:28.473Z,20.05
2023-04-18T10:46:32.233Z,20.17
2023-04-18T10:47:28.534Z,19.65
2023-04-18T10:48:28.477Z,19.48
2023-04-18T10:49:31.115Z,20.06
2023-04-18T10:50:28.473Z,20.87
2023-04-18T10:51:28.550Z,20.29
2023-04-18T10:52:28.418Z,20.38
2023-04-18T10:53:28.361Z,20.80
2023-04-18T10:54:28.346Z,19.92
2023-04-18T10:55:28.392Z,19.65
2023-04-18T10:56:28.356Z,19.55
2023-04-18T10:57:28.435Z,19.19
2023-04-18T10:58:28.379Z,19.22
2023-04-18T10:59:28.404Z,19.63
2023-04-18T11:00:28.306Z,19.37
2023-04-18T11:01:31.736Z,18.32
2023-04-18T11:02:28.371Z,18.26
2023-04-18T11:03:28.357Z,18.29
2023-04-18T11:04:28.373Z,17.72
2023-04-18T11:05:28.277Z,17.92
2023-04-18T11:06:28.578Z,17.58
2023-04-18T11:07:29.915Z,17.46
2023-04-18T11:08:28.228Z,17.19
2023-04-18T11:09:28.271Z,16.93
2023-04-18T11:10:28.254Z,16.50
2023-04-18T11:11:28.177Z,16.60
2023-04-18T11:12:28.173Z,16.48
2023-04-18T11:13:28.171Z,16.57
2023-04-18T11:14:28.158Z,16.25
2023-04-18T11:15:30.365Z,15.93
2023-04-18T11:16:37.925Z,15.82
2023-04-18T11:17:28.126Z,15.65
2023-04-18T11:18:28.097Z,15.60
2023-04-18T11:19:28.091Z,15.62
2023-04-18T11:20:28.086Z,15.62
2023-04-18T11:21:37.838Z,15.60
2023-04-18T11:22:28.092Z,15.50
2023-04-18T11:23:28.076Z,15.41
2023-04-18T11:24:28.034Z,15.46
2023-04-18T11:25:28.033Z,15.50
2023-04-18T11:26:37.276Z,15.46
2023-04-18T11:27:28.032Z,15.59
2023-04-18T11:28:27.992Z,15.83
2023-04-18T11:29:27.984Z,15.82
2023-04-18T11:30:28.023Z,15.92
2023-04-18T11:31:37.293Z,15.87
2023-04-18T11:32:28.054Z,15.75
2023-04-18T11:33:27.952Z,15.89
2023-04-18T11:34:27.932Z,15.96
2023-04-18T11:35:27.945Z,15.94
2023-04-18T11:36:30.741Z,16.02
2023-04-18T11:37:27.906Z,16.11
2023-04-18T11:38:27.891Z,16.21
2023-04-18T11:39:27.882Z,16.27
2023-04-18T11:40:27.875Z,16.42
2023-04-18T11:41:27.893Z,16.38
2023-04-18T11:42:27.890Z,16.28
2023-04-18T11:43:27.837Z,16.04
2023-04-18T11:44:27.825Z,15.74
2023-04-18T11:45:27.828Z,15.72
2023-04-18T11:46:27.842Z,15.80
2023-04-18T11:47:27.850Z,15.94
2023-04-18T11:48:27.774Z,16.05
2023-04-18T11:49:27.767Z,16.07
2023-04-18T11:50:27.837Z,16.09
2023-04-18T11:51:36.236Z,16.01
2023-04-18T11:52:27.739Z,15.96
2023-04-18T11:53:27.735Z,15.97
2023-04-18T11:54:27.760Z,15.84
2023-04-18T11:55:27.713Z,15.84
2023-04-18T11:56:27.710Z,15.72
2023-04-18T11:57:27.714Z,15.74
2023-04-18T11:58:27.678Z,15.67
2023-04-18T11:59:27.661Z,15.65
2023-04-18T12:00:29.236Z,15.67
2023-04-18T12:01:27.660Z,15.87
2023-04-18T12:03:27.769Z,15.90
2023-04-18T12:04:27.864Z,15.86
2023-04-18T12:05:27.721Z,15.82
2023-04-18T12:06:27.726Z,15.69
2023-04-18T12:07:27.582Z,16.52
2023-04-18T12:08:27.572Z,17.90
2023-04-18T12:09:27.564Z,18.44
2023-04-18T12:10:31.745Z,18.92
2023-04-18T12:11:27.565Z,18.90
2023-04-18T12:12:27.541Z,18.81
2023-04-18T12:13:27.524Z,18.91
2023-04-18T12:14:27.519Z,18.45
2023-04-18T12:15:27.559Z,18.90
2023-04-18T17:01:02.663Z,15.36
2023-04-18T17:02:02.046Z,15.31
2023-04-18T17:38:58.578Z,15.27
2023-04-18T17:40:00.560Z,15.03
2023-04-18T17:40:58.389Z,14.96
2023-04-18T17:41:59.276Z,14.94
2023-04-18T17:43:00.147Z,14.88
2023-04-18T17:44:02.162Z,14.78
2023-04-18T17:45:02.122Z,14.69
2023-04-18T17:45:58.669Z,14.68
2023-04-18T17:46:59.231Z,14.58
2023-04-18T17:48:00.043Z,14.51
2023-04-18T17:52:26.218Z,14.15
2023-04-18T17:53:32.347Z,14.04
2023-04-18T17:58:09.426Z,13.73
2023-04-18T17:59:18.643Z,13.66
2023-04-18T18:00:19.165Z,13.62
2023-04-18T18:01:19.142Z,13.55
2023-04-18T18:02:20.454Z,13.49
2023-04-18T18:03:17.513Z,13.45
2023-04-18T18:23:57.862Z,13.11
2023-04-18T18:25:03.080Z,13.08
2023-04-18T18:26:03.079Z,13.07
2023-04-18T18:27:02.617Z,13.07
2023-04-18T18:44:28.317Z,12.93
2023-04-18T18:45:29.719Z,12.90
2023-04-18T18:46:27.169Z,12.86
2023-04-18T18:47:27.098Z,12.79
2023-04-18T18:48:26.750Z,12.74
2023-04-18T18:49:28.004Z,12.75
2023-04-18T18:50:28.843Z,12.75
2023-04-18T18:51:26.407Z,12.77
2023-04-18T18:52:26.775Z,12.78
2023-04-18T18:53:30.864Z,12.79
2023-04-18T19:00:22.533Z,12.78
2023-04-18T19:01:29.581Z,12.77
2023-04-18T19:02:31.964Z,12.72
2023-04-18T19:03:32.054Z,12.74
2023-04-18T19:04:34.418Z,12.75
2023-04-18T19:05:34.511Z,12.77
2023-04-18T19:06:32.844Z,12.75
2023-04-18T19:07:32.334Z,12.75
2023-04-18T19:08:33.276Z,12.75
2023-04-18T19:09:32.910Z,12.71
2023-04-18T19:10:31.228Z,12.72
2023-04-18T19:11:29.831Z,12.71
2023-04-18T19:12:29.503Z,12.72
2023-04-18T19:13:29.778Z,12.74
2023-04-18T19:14:37.038Z,12.75
2023-04-18T19:15:33.070Z,12.75
2023-04-18T19:16:32.090Z,12.77
2023-04-18T19:17:31.619Z,12.77
2023-04-18T19:18:32.083Z,12.78
2023-04-18T19:27:43.423Z,12.82
2023-04-18T19:28:48.294Z,12.79
2023-04-18T19:29:46.991Z,12.79
2023-04-18T19:30:45.326Z,12.78
2023-04-18T19:31:44.983Z,12.78
2023-04-18T19:32:47.051Z,12.78
2023-04-18T19:33:47.017Z,12.79
2023-04-18T19:37:15.576Z,12.79
2023-04-18T19:44:23.655Z,12.72
2023-04-18T19:45:25.152Z,12.71
2023-04-18T19:46:24.279Z,12.70
2023-04-18T20:01:13.878Z,12.57
2023-04-18T20:02:18.578Z,12.54
2023-04-18T20:03:16.354Z,12.56
2023-04-18T20:29:41.805Z,12.42
2023-04-18T20:30:44.709Z,12.42
2023-04-18T20:31:44.112Z,12.42
2023-04-18T20:32:44.172Z,12.41
2023-04-18T20:33:46.139Z,12.41
2023-04-18T20:36:48.765Z,12.39
2023-04-18T20:37:57.839Z,12.37
2023-04-18T20:39:00.354Z,12.37
2023-04-18T20:39:56.983Z,12.35
2023-04-18T20:40:56.419Z,12.32
2023-04-18T20:41:56.063Z,12.29
2023-04-18T20:42:57.900Z,12.23
2023-04-18T20:43:56.926Z,12.24
2023-04-18T20:44:58.445Z,12.23
2023-04-18T20:45:58.474Z,12.24
2023-04-18T20:46:57.992Z,12.23
2023-04-18T20:48:00.544Z,12.24
2023-04-18T20:59:28.798Z,12.24
2023-04-18T21:00:26.420Z,12.27
2023-04-18T21:01:26.741Z,12.24
2023-04-18T21:02:26.614Z,12.27
2023-04-18T21:03:31.712Z,12.27
2023-04-18T21:04:26.279Z,12.27
2023-04-18T21:05:26.380Z,12.27
2023-04-18T21:06:26.105Z,12.24
2023-04-18T21:07:26.078Z,12.23
2023-04-18T21:08:27.069Z,12.19
2023-04-18T21:09:26.342Z,12.17
2023-04-18T21:10:26.633Z,12.16
2023-04-18T21:11:28.039Z,12.16
2023-04-18T21:12:29.527Z,12.16
2023-04-18T21:16:52.522Z,12.14
2023-04-18T21:17:59.982Z,12.14
2023-04-18T21:18:58.860Z,12.13
2023-04-18T21:20:05.414Z,12.16
2023-04-18T21:20:59.339Z,12.14
2023-04-18T21:21:59.897Z,12.16
2023-04-18T21:23:01.480Z,12.17
2023-04-18T21:24:06.229Z,12.19
2023-04-18T21:24:59.682Z,12.21
2023-04-18T21:25:59.263Z,12.16
2023-04-18T21:27:03.045Z,12.16
2023-04-18T21:28:05.072Z,12.17
2023-04-18T21:29:01.077Z,12.14
2023-04-18T21:29:58.714Z,12.14
2023-04-18T21:30:59.307Z,12.16
2023-04-18T21:31:59.030Z,12.16
2023-04-18T21:32:59.639Z,12.14
2023-04-18T21:36:38.914Z,12.13
2023-04-18T21:37:47.936Z,12.10
2023-04-18T21:38:46.964Z,12.09
2023-04-18T21:39:47.959Z,12.09
2023-04-18T21:40:47.046Z,12.05
2023-04-18T21:41:49.026Z,12.05
2023-04-18T21:42:49.952Z,12.02
2023-04-18T21:53:26.488Z,11.99
2023-04-18T21:57:15.962Z,11.99
2023-04-18T21:59:43.763Z,11.99
2023-04-18T22:00:43.569Z,11.96
2023-04-18T22:01:45.974Z,11.98
2023-04-18T22:02:43.524Z,11.96
2023-04-18T22:03:44.435Z,11.96
2023-04-18T22:04:43.504Z,11.98
2023-04-18T22:05:45.310Z,11.95
2023-04-18T22:06:45.576Z,11.95
2023-04-18T22:07:54.435Z,11.91
2023-04-18T22:08:44.388Z,11.91
2023-04-18T22:09:43.471Z,11.91
2023-04-18T22:10:43.461Z,11.94
2023-04-18T22:11:43.457Z,11.95
2023-04-18T22:12:43.610Z,11.94
2023-04-18T22:13:48.472Z,11.94
2023-04-18T22:14:45.979Z,11.94
2023-04-18T22:15:43.087Z,11.88
2023-04-18T22:16:45.571Z,11.83
2023-04-18T22:17:45.078Z,11.80
2023-04-18T22:18:45.172Z,11.80
2023-04-18T22:19:45.084Z,11.80
2023-04-18T22:20:45.098Z,11.82
2023-04-18T22:21:45.618Z,11.80
2023-04-18T22:22:43.009Z,11.79
2023-04-18T22:23:45.509Z,11.78
2023-04-18T22:24:44.923Z,11.76
2023-04-18T22:25:44.059Z,11.78
2023-04-18T22:26:43.757Z,11.79
2023-04-18T22:27:44.012Z,11.78
2023-04-18T22:28:44.756Z,11.80
2023-04-18T22:29:42.895Z,11.78
2023-04-18T22:30:43.263Z,11.78
2023-04-18T22:31:42.889Z,11.76
2023-04-18T22:32:46.376Z,11.78
2023-04-18T22:47:39.037Z,11.64
2023-04-18T22:48:48.797Z,11.61
2023-04-18T22:49:48.251Z,11.61
2023-04-18T22:50:46.589Z,11.62
2023-04-18T22:51:46.001Z,11.62
2023-04-18T22:52:48.278Z,11.62
2023-04-18T22:53:48.285Z,11.62
2023-04-18T22:54:46.850Z,11.61
2023-04-18T22:55:46.854Z,11.60
2023-04-18T22:56:45.912Z,11.60
2023-04-18T22:57:48.345Z,11.60
2023-04-18T22:58:48.373Z,11.60
2023-04-18T22:59:47.276Z,11.61
2023-04-18T23:00:46.669Z,11.62
2023-04-18T23:01:47.925Z,11.64
2023-04-18T23:02:46.052Z,11.62
2023-04-18T23:03:50.713Z,11.64
2023-04-18T23:04:47.286Z,11.64
2023-04-18T23:05:47.517Z,11.65
2023-04-18T23:06:48.095Z,11.64
2023-04-18T23:07:48.037Z,11.62
2023-04-18T23:08:48.939Z,11.64
2023-04-18T23:09:48.219Z,11.62
2023-04-18T23:10:45.738Z,11.60
2023-04-18T23:11:45.792Z,11.61
2023-04-18T23:12:45.744Z,11.61
2023-04-18T23:13:47.161Z,11.60
2023-04-18T23:14:48.684Z,11.57
2023-04-18T23:15:46.108Z,11.57
2023-04-18T23:16:46.028Z,11.55
2023-04-18T23:17:46.047Z,11.52
2023-04-18T23:18:46.749Z,11.52
2023-04-18T23:19:45.678Z,11.52
2023-04-18T23:20:45.962Z,11.49
2023-04-18T23:21:47.071Z,11.51
2023-04-18T23:22:45.941Z,11.47
2023-04-18T23:23:47.327Z,11.47
2023-04-18T23:24:46.819Z,11.47
2023-04-18T23:25:45.605Z,11.47
2023-04-18T23:28:07.447Z,11.52
2023-04-18T23:29:09.454Z,11.52
2023-04-18T23:30:09.977Z,11.51
2023-04-18T23:31:08.384Z,11.52
2023-04-18T23:32:08.355Z,11.54
2023-04-18T23:33:10.587Z,11.54
2023-04-18T23:37:39.989Z,11.52
2023-04-18T23:53:29.165Z,11.43
2023-04-18T23:54:31.134Z,11.42
2023-04-18T23:55:29.225Z,11.42
2023-04-18T23:56:28.724Z,11.42
2023-04-18T23:57:30.781Z,11.40
